Time;durP1;ratioP1;P1;durP2;ratioP2;P2;SDS_P1;SDS_P2;PMS_P1;PMS_P2;Temp;Humidity;BMP_temperature;BMP_pressure;BME280_temperature;BME280_humidity;BME280_pressure;Samples;Min_cycle;Max_cycle;Signal;HPM_P1;HPM_P2
2023/05/04 00:01:35;;;;;;;7.23;6.73;;;14.40;44.50;;;;;;20692;6853;118101;-74
2023/05/04 00:04:02;;;;;;;6.57;6.13;;;14.00;45.80;;;;;;20689;6853;117168;-73
2023/05/04 00:06:28;;;;;;;6.37;5.97;;;14.00;44.90;;;;;;20670;6853;117334;-73
2023/05/04 00:08:54;;;;;;;6.60;6.20;;;13.70;45.30;;;;;;20694;6853;118429;-73
2023/05/04 00:11:19;;;;;;;7.80;7.20;;;13.50;45.80;;;;;;20484;6853;317271;-74
2023/05/04 00:13:45;;;;;;;7.13;6.67;;;13.70;45.40;;;;;;20695;6853;123015;-74
2023/05/04 00:16:11;;;;;;;7.67;7.17;;;13.80;45.50;;;;;;20697;6853;123604;-74
2023/05/04 00:18:36;;;;;;;8.35;7.45;;;13.60;45.70;;;;;;20465;6852;287644;-74
2023/05/04 00:21:01;;;;;;;8.03;7.33;;;13.70;45.30;;;;;;20694;6852;117348;-73
2023/05/04 00:23:27;;;;;;;8.03;7.37;;;13.70;45.40;;;;;;20477;6853;308274;-74
2023/05/04 00:25:52;;;;;;;7.10;6.60;;;13.90;45.00;;;;;;20691;6853;117613;-74
2023/05/04 00:28:19;;;;;;;7.70;7.20;;;13.80;45.10;;;;;;20463;6853;282842;-74
2023/05/04 00:30:45;;;;;;;7.73;7.23;;;14.00;44.80;;;;;;20482;6853;313239;-74
2023/05/04 00:33:11;;;;;;;6.70;6.20;;;14.10;44.60;;;;;;20692;6853;117613;-74
2023/05/04 00:35:37;;;;;;;7.60;7.10;;;14.10;44.60;;;;;;20464;6853;340847;-74
2023/05/04 00:38:03;;;;;;;7.33;6.83;;;14.20;44.50;;;;;;20648;6853;117543;-73
2023/05/04 00:40:28;;;;;;;6.90;6.20;;;14.00;44.70;;;;;;20621;6853;117290;-74
2023/05/04 00:42:53;;;;;;;6.80;6.40;;;13.80;45.30;;;;;;20626;6853;117410;-73
2023/05/04 00:45:19;;;;;;;7.70;7.12;;;13.50;45.70;;;;;;20416;6853;308254;-73
2023/05/04 00:47:45;;;;;;;6.90;6.50;;;13.70;45.20;;;;;;20646;6853;117668;-74
2023/05/04 00:50:11;;;;;;;7.03;6.63;;;13.70;45.30;;;;;;20670;6853;117185;-74
2023/05/04 00:52:37;;;;;;;8.60;8.00;;;13.50;45.70;;;;;;20474;6853;311940;-73
2023/05/04 00:55:03;;;;;;;7.60;7.10;;;13.60;45.50;;;;;;20675;6853;117180;-73
2023/05/04 00:57:30;;;;;;;8.20;7.70;;;13.70;45.80;;;;;;20476;6853;307348;-73
2023/05/04 00:59:55;;;;;;;7.77;7.20;;;13.70;45.10;;;;;;20691;6853;120475;-73
2023/05/04 01:02:21;;;;;;;8.77;8.17;;;13.60;45.20;;;;;;20462;6853;336892;-74
2023/05/04 01:04:46;;;;;;;8.80;8.00;;;13.70;45.00;;;;;;20488;6853;278283;-73
2023/05/04 01:07:40;;;;;;;8.33;7.63;;;13.80;44.90;;;;;;20694;6853;117262;-74
2023/05/04 01:10:25;;;;;;;8.23;7.47;;;13.80;44.90;;;;;;20691;6853;117165;-74
2023/05/04 01:12:51;;;;;;;7.90;7.37;;;13.50;45.50;;;;;;20683;6853;117987;-73
2023/05/04 01:15:16;;;;;;;9.20;8.40;;;13.10;45.90;;;;;;20451;6853;317638;-74
2023/05/04 01:17:42;;;;;;;9.25;8.52;;;13.30;46.00;;;;;;20464;6853;308339;-74
2023/05/04 01:20:08;;;;;;;9.10;8.60;;;13.60;45.70;;;;;;20439;6853;278412;-73
2023/05/04 01:22:33;;;;;;;8.83;8.20;;;13.90;45.30;;;;;;20649;6853;121143;-73
2023/05/04 01:24:59;;;;;;;8.60;8.00;;;13.70;45.40;;;;;;20637;6853;117622;-73
2023/05/04 01:27:30;;;;;;;8.93;8.27;;;13.40;45.80;;;;;;20677;6853;117446;-74
2023/05/04 01:29:59;;;;;;;9.97;9.37;;;13.10;46.30;;;;;;20141;6852;283052;-73
2023/05/04 01:32:26;;;;;;;9.67;8.83;;;13.30;46.50;;;;;;20641;6852;117177;-74
2023/05/04 01:34:52;;;;;;;11.00;10.30;;;13.40;46.60;;;;;;20458;6853;308285;-74
2023/05/04 01:37:17;;;;;;;9.80;9.17;;;13.30;46.60;;;;;;20686;6853;117508;-75
2023/05/04 01:39:45;;;;;;;10.63;9.63;;;13.00;47.00;;;;;;20697;6853;122954;-75
2023/05/04 01:42:09;;;;;;;11.23;10.20;;;13.00;47.00;;;;;;20687;6853;121543;-73
2023/05/04 01:44:35;;;;;;;10.03;9.13;;;12.80;47.40;;;;;;20673;6853;117560;-74
2023/05/04 01:47:00;;;;;;;12.35;11.55;;;12.70;47.80;;;;;;20483;6853;312786;-73
2023/05/04 01:49:26;;;;;;;12.10;11.40;;;12.90;48.50;;;;;;20484;6853;292276;-73
2023/05/04 01:51:52;;;;;;;12.73;11.83;;;13.30;48.20;;;;;;20478;6853;308371;-73
2023/05/04 01:54:17;;;;;;;13.32;12.43;;;13.70;47.80;;;;;;20452;6853;309251;-75
2023/05/04 01:56:43;;;;;;;11.57;10.67;;;13.90;47.20;;;;;;20696;6853;118175;-73
2023/05/04 01:59:09;;;;;;;12.37;11.57;;;13.90;47.40;;;;;;20476;6853;290962;-74
2023/05/04 02:01:35;;;;;;;11.63;10.83;;;13.90;47.40;;;;;;20696;6853;117504;-73
2023/05/04 02:04:00;;;;;;;13.20;12.10;;;13.80;47.40;;;;;;20475;6853;328295;-74
2023/05/04 02:06:26;;;;;;;12.07;11.18;;;13.80;47.50;;;;;;20668;6853;118055;-74
2023/05/04 02:08:52;;;;;;;13.40;12.50;;;13.80;47.20;;;;;;20481;6853;278000;-75
2023/05/04 02:11:18;;;;;;;14.00;13.00;;;13.80;47.60;;;;;;20479;6853;279514;-73
2023/05/04 02:13:44;;;;;;;13.85;12.93;;;14.10;47.40;;;;;;20483;6853;338111;-74
2023/05/04 02:16:09;;;;;;;12.57;11.48;;;14.30;47.00;;;;;;20688;6853;117694;-73
2023/05/04 02:18:35;;;;;;;12.57;11.67;;;14.10;47.10;;;;;;20673;6853;120573;-73
2023/05/04 02:21:01;;;;;;;14.87;13.77;;;13.80;47.50;;;;;;20476;6853;277919;-74
2023/05/04 02:23:26;;;;;;;14.77;13.73;;;13.80;47.80;;;;;;20475;6853;307457;-73
2023/05/04 02:25:52;;;;;;;14.80;13.70;;;14.30;47.30;;;;;;20482;6853;282987;-73
2023/05/04 02:28:18;;;;;;;15.60;14.48;;;14.30;47.30;;;;;;20446;6853;307001;-74
2023/05/04 02:30:44;;;;;;;15.30;14.10;;;14.40;47.00;;;;;;20476;6853;338308;-74
2023/05/04 02:33:10;;;;;;;13.50;12.45;;;14.30;46.90;;;;;;20697;6853;117507;-74
2023/05/04 02:35:35;;;;;;;14.30;13.10;;;14.30;46.90;;;;;;20687;6853;117480;-73
2023/05/04 02:38:01;;;;;;;13.00;11.83;;;13.90;47.50;;;;;;20693;6853;117560;-73
2023/05/04 02:40:27;;;;;;;13.18;12.05;;;13.60;47.90;;;;;;20670;6853;120769;-74
2023/05/04 02:42:53;;;;;;;13.20;12.20;;;13.10;48.60;;;;;;20690;6851;123485;-73
2023/05/04 02:45:19;;;;;;;13.93;12.83;;;13.10;48.60;;;;;;20693;6853;117428;-73
2023/05/04 02:47:44;;;;;;;16.12;14.93;;;13.00;48.90;;;;;;20481;6853;312401;-73
2023/05/04 02:50:11;;;;;;;13.80;12.70;;;13.20;49.30;;;;;;20686;6853;117545;-73
2023/05/04 02:52:37;;;;;;;16.52;15.23;;;13.20;49.00;;;;;;20458;6853;342046;-73
2023/05/04 02:55:02;;;;;;;14.90;13.60;;;13.40;48.90;;;;;;20696;6853;117531;-73
2023/05/04 02:57:28;;;;;;;13.60;12.40;;;13.40;48.70;;;;;;20694;6853;117985;-73
2023/05/04 02:59:54;;;;;;;13.90;12.80;;;13.00;49.30;;;;;;20691;6853;122074;-73
2023/05/04 03:02:20;;;;;;;13.70;12.40;;;13.00;49.20;;;;;;20673;6853;123782;-73
2023/05/04 03:04:45;;;;;;;14.27;13.07;;;12.80;49.40;;;;;;20691;6853;123643;-73
2023/05/04 03:07:11;;;;;;;24.77;22.90;;;12.70;49.70;;;;;;20478;6853;278330;-73
2023/05/04 03:09:36;;;;;;;15.17;13.97;;;12.90;49.90;;;;;;20697;6853;117537;-73
2023/05/04 03:12:03;;;;;;;17.50;16.23;;;13.20;49.60;;;;;;20478;6853;316756;-73
2023/05/04 03:14:28;;;;;;;15.93;14.53;;;13.20;49.60;;;;;;20678;6853;117568;-74
2023/05/04 03:16:54;;;;;;;16.50;15.00;;;13.20;49.40;;;;;;20691;6853;117658;-73
2023/05/04 03:19:20;;;;;;;17.63;16.33;;;13.20;49.70;;;;;;20482;6853;307678;-73
2023/05/04 03:21:46;;;;;;;18.43;17.03;;;13.20;49.70;;;;;;20478;6853;277984;-72
2023/05/04 03:24:14;;;;;;;16.50;15.10;;;13.50;49.10;;;;;;20690;6853;120079;-76
2023/05/04 03:26:39;;;;;;;15.77;14.37;;;13.40;49.00;;;;;;20657;6853;123161;-76
2023/05/04 03:29:05;;;;;;;14.90;13.43;;;13.20;49.30;;;;;;20692;6853;117774;-77
2023/05/04 03:31:30;;;;;;;15.25;13.85;;;13.00;49.70;;;;;;20696;6853;124400;-76
2023/05/04 03:33:56;;;;;;;15.33;13.83;;;12.80;49.90;;;;;;20690;6853;117645;-76
2023/05/04 03:36:21;;;;;;;15.83;14.53;;;12.60;50.10;;;;;;20674;6853;118038;-76
2023/05/04 03:38:48;;;;;;;19.30;17.58;;;12.80;50.50;;;;;;20478;6853;307613;-75
2023/05/04 03:41:13;;;;;;;16.53;15.20;;;12.80;50.50;;;;;;20695;6853;118044;-76
2023/05/04 03:43:39;;;;;;;19.25;17.75;;;12.80;50.10;;;;;;20478;6853;307596;-77
2023/05/04 03:46:04;;;;;;;16.63;15.13;;;13.00;50.10;;;;;;20696;6853;117520;-76
2023/05/04 03:48:30;;;;;;;19.55;18.05;;;13.00;49.90;;;;;;20460;6853;336956;-76
2023/05/04 03:50:55;;;;;;;16.83;15.38;;;13.20;49.90;;;;;;20674;6853;117688;-77
2023/05/04 03:53:21;;;;;;;18.67;17.27;;;13.10;49.70;;;;;;20475;6851;278562;-76
2023/05/04 03:55:47;;;;;;;19.50;18.00;;;13.20;49.70;;;;;;20481;6852;277907;-75
2023/05/04 03:58:12;;;;;;;17.93;16.23;;;13.50;49.30;;;;;;20701;6853;117437;-75
2023/05/04 04:00:40;;;;;;;16.50;14.93;;;13.10;49.60;;;;;;20678;6853;119444;-75
2023/05/04 04:03:05;;;;;;;18.85;17.42;;;13.10;49.60;;;;;;20497;6853;308072;-75
2023/05/04 04:05:31;;;;;;;18.67;17.27;;;13.30;49.80;;;;;;20486;6853;312970;-75
2023/05/04 04:07:57;;;;;;;16.30;15.00;;;13.40;49.10;;;;;;20697;6853;117572;-75
2023/05/04 04:10:23;;;;;;;16.43;15.13;;;13.40;49.10;;;;;;20677;6853;119803;-76
2023/05/04 04:12:48;;;;;;;15.80;14.43;;;13.20;49.50;;;;;;20700;6853;120304;-76
2023/05/04 04:15:17;;;;;;;16.83;15.23;;;13.00;50.00;;;;;;20688;6853;117547;-76
2023/05/04 04:17:42;;;;;;;17.03;15.17;;;12.80;50.20;;;;;;20671;6853;117470;-76
2023/05/04 04:20:08;;;;;;;15.67;14.37;;;12.60;50.40;;;;;;20693;6853;117957;-75
2023/05/04 04:22:34;;;;;;;18.65;17.05;;;12.50;50.50;;;;;;20454;6853;308853;-75
2023/05/04 04:25:00;;;;;;;17.02;15.48;;;12.80;50.60;;;;;;20697;6853;117662;-75
2023/05/04 04:27:25;;;;;;;13.40;12.13;;;12.90;50.40;;;;;;20696;6853;123505;-75
2023/05/04 04:29:51;;;;;;;10.93;9.93;;;12.80;50.70;;;;;;20682;6853;118368;-73
2023/05/04 04:32:16;;;;;;;13.13;11.93;;;12.60;50.70;;;;;;20483;6853;338478;-73
2023/05/04 04:34:43;;;;;;;13.50;12.40;;;12.80;50.70;;;;;;20690;6853;118143;-74
2023/05/04 04:37:07;;;;;;;12.60;11.77;;;12.80;50.60;;;;;;20480;6853;328471;-74
2023/05/04 04:39:33;;;;;;;15.68;14.38;;;13.00;50.00;;;;;;20694;6853;117936;-74
2023/05/04 04:41:59;;;;;;;17.00;15.70;;;13.00;50.10;;;;;;20483;6853;337934;-75
2023/05/04 04:44:25;;;;;;;15.60;14.30;;;13.20;49.80;;;;;;20671;6853;118040;-75
2023/05/04 04:46:51;;;;;;;15.00;13.80;;;13.20;49.80;;;;;;20693;6853;118001;-75
2023/05/04 04:49:16;;;;;;;14.50;13.30;;;13.00;50.00;;;;;;20686;6853;120114;-73
2023/05/04 04:51:42;;;;;;;12.23;11.33;;;12.90;50.30;;;;;;20483;6853;308310;-73
2023/05/04 04:54:07;;;;;;;10.37;9.47;;;13.10;49.80;;;;;;20698;6853;117823;-74
2023/05/04 04:56:33;;;;;;;12.10;11.17;;;13.20;49.60;;;;;;20466;6853;278145;-74
2023/05/04 04:58:58;;;;;;;17.17;15.73;;;13.30;49.00;;;;;;20483;6853;336547;-74
2023/05/04 05:01:25;;;;;;;17.30;15.90;;;13.60;48.80;;;;;;20478;6853;318269;-72
2023/05/04 05:03:49;;;;;;;14.70;13.60;;;13.90;48.70;;;;;;20474;6853;311614;-72
2023/05/04 05:06:15;;;;;;;16.07;14.67;;;14.10;48.30;;;;;;20678;6852;117538;-72
2023/05/04 05:08:42;;;;;;;17.53;16.13;;;13.90;48.40;;;;;;20456;6853;307441;-72
2023/05/04 05:11:07;;;;;;;15.75;14.27;;;13.90;48.90;;;;;;20686;6853;120060;-72
2023/05/04 05:13:34;;;;;;;14.47;13.03;;;13.90;48.70;;;;;;20682;6853;117901;-75
2023/05/04 05:15:59;;;;;;;13.53;12.43;;;13.70;49.10;;;;;;20692;6853;121306;-75
2023/05/04 05:18:25;;;;;;;15.13;13.90;;;13.50;49.60;;;;;;20440;6853;307931;-74
2023/05/04 05:20:50;;;;;;;29.03;25.90;;;13.70;48.80;;;;;;20694;6853;118087;-75
2023/05/04 05:23:17;;;;;;;18.17;16.73;;;13.80;48.80;;;;;;20482;6853;323883;-73
2023/05/04 05:25:42;;;;;;;16.97;15.57;;;13.80;48.80;;;;;;20696;6853;120822;-75
2023/05/04 05:28:08;;;;;;;29.53;26.70;;;13.80;48.90;;;;;;20698;6853;119690;-74
2023/05/04 05:30:33;;;;;;;15.83;14.70;;;13.60;49.00;;;;;;20464;6853;325998;-72
2023/05/04 05:32:59;;;;;;;14.67;13.37;;;13.80;48.60;;;;;;20688;6853;117965;-72
2023/05/04 05:35:25;;;;;;;15.50;14.40;;;13.80;48.60;;;;;;20479;6853;341931;-73
2023/05/04 05:37:51;;;;;;;15.80;14.50;;;13.90;48.10;;;;;;20481;6853;312900;-75
2023/05/04 05:40:18;;;;;;;16.17;14.87;;;14.50;47.20;;;;;;20487;6853;308170;-75
2023/05/04 05:42:43;;;;;;;14.10;12.90;;;14.50;47.80;;;;;;20546;6853;117646;-72
2023/05/04 05:45:09;;;;;;;14.00;12.80;;;14.40;47.40;;;;;;20693;6853;117502;-72
2023/05/04 05:47:35;;;;;;;15.00;13.60;;;14.10;47.80;;;;;;20482;6853;306409;-71
2023/05/04 05:50:00;;;;;;;13.70;12.60;;;14.20;47.30;;;;;;20693;6853;117559;-74
2023/05/04 05:52:25;;;;;;;14.87;13.60;;;14.20;47.60;;;;;;20464;6853;307839;-73
2023/05/04 05:54:51;;;;;;;15.18;14.00;;;14.40;47.70;;;;;;20478;6853;337037;-73
2023/05/04 05:57:17;;;;;;;22.20;17.53;;;14.70;47.20;;;;;;20485;6853;278730;-72
2023/05/04 05:59:43;;;;;;;17.37;15.57;;;14.90;46.20;;;;;;20479;6853;282982;-72
2023/05/04 06:02:08;;;;;;;13.50;12.27;;;15.10;46.20;;;;;;20691;6853;120536;-75
2023/05/04 06:04:33;;;;;;;13.70;12.43;;;15.00;46.60;;;;;;20676;6853;119643;-72
2023/05/04 06:06:59;;;;;;;13.32;12.30;;;14.80;47.20;;;;;;20695;6853;118073;-74
2023/05/04 06:09:24;;;;;;;13.07;12.07;;;14.50;48.20;;;;;;20691;6853;117520;-75
2023/05/04 06:11:50;;;;;;;13.23;12.03;;;14.40;47.90;;;;;;20712;6853;120680;-75
2023/05/04 06:14:16;;;;;;;15.82;14.40;;;14.30;48.30;;;;;;20503;6853;326425;-71
2023/05/04 06:16:41;;;;;;;17.48;15.77;;;14.60;47.90;;;;;;20469;6852;278431;-72
2023/05/04 06:19:07;;;;;;;17.67;14.50;;;15.10;47.70;;;;;;20696;6853;117984;-72
2023/05/04 06:21:32;;;;;;;12.30;11.30;;;15.20;47.60;;;;;;20697;6853;117961;-71
2023/05/04 06:23:58;;;;;;;14.00;12.80;;;15.20;47.90;;;;;;20487;6853;278761;-72
2023/05/04 06:26:24;;;;;;;12.18;11.38;;;15.50;46.30;;;;;;20462;6853;313072;-72
2023/05/04 06:28:49;;;;;;;12.50;11.50;;;15.90;46.20;;;;;;20686;6853;117685;-72
2023/05/04 06:31:15;;;;;;;11.40;10.60;;;16.10;46.50;;;;;;20690;6853;117562;-73
2023/05/04 06:33:40;;;;;;;12.23;11.50;;;16.00;46.80;;;;;;20484;6853;285813;-71
2023/05/04 06:36:07;;;;;;;11.30;10.40;;;16.50;46.70;;;;;;20693;6853;117524;-74
2023/05/04 06:38:32;;;;;;;12.57;11.47;;;16.50;46.10;;;;;;20670;6853;123973;-73
2023/05/04 06:40:58;;;;;;;11.20;10.20;;;16.70;46.70;;;;;;20694;6853;123659;-73
2023/05/04 06:43:23;;;;;;;12.50;11.60;;;16.90;46.70;;;;;;20480;6853;308393;-74
2023/05/04 06:45:49;;;;;;;11.20;10.30;;;17.50;43.80;;;;;;20702;6853;117451;-73
2023/05/04 06:48:14;;;;;;;11.03;10.13;;;18.00;44.30;;;;;;20702;6853;117478;-73
2023/05/04 06:50:41;;;;;;;11.57;10.67;;;18.20;44.90;;;;;;20458;6853;308366;-73
2023/05/04 06:53:08;;;;;;;11.23;10.40;;;19.30;40.60;;;;;;20451;6853;307013;-73
2023/05/04 06:55:34;;;;;;;11.60;10.80;;;19.80;40.50;;;;;;20458;6853;337046;-73
2023/05/04 06:58:00;;;;;;;10.40;9.70;;;19.80;39.80;;;;;;20688;6853;118669;-71
2023/05/04 07:00:25;;;;;;;10.55;9.75;;;19.90;40.90;;;;;;20466;6853;311053;-71
2023/05/04 07:02:52;;;;;;;10.55;9.73;;;20.10;38.80;;;;;;20482;6853;280797;-72
2023/05/04 07:05:18;;;;;;;10.77;10.07;;;20.70;37.90;;;;;;20479;6853;278736;-72
2023/05/04 07:07:45;;;;;;;11.80;11.10;;;20.80;38.00;;;;;;20470;6853;341848;-71
2023/05/04 07:10:13;;;;;;;9.97;9.17;;;20.80;38.00;;;;;;20688;6853;117629;-74
2023/05/04 07:12:38;;;;;;;10.35;9.55;;;20.60;38.70;;;;;;20449;6853;312445;-78
2023/05/04 07:15:05;;;;;;;12.50;11.70;;;20.60;38.50;;;;;;20476;6853;308332;-74
2023/05/04 07:17:29;;;;;;;9.77;9.07;;;20.80;39.20;;;;;;20475;6853;336963;-74
2023/05/04 07:19:55;;;;;;;9.43;8.83;;;20.90;38.50;;;;;;20681;6853;117203;-73
2023/05/04 07:22:20;;;;;;;9.10;8.40;;;20.80;39.30;;;;;;20679;6853;117873;-74
2023/05/04 07:24:46;;;;;;;9.80;9.03;;;20.60;40.00;;;;;;20692;6853;117381;-75
2023/05/04 07:27:11;;;;;;;8.90;8.30;;;20.40;40.60;;;;;;20475;6853;298216;-78
2023/05/04 07:29:37;;;;;;;6.60;6.10;;;20.70;39.30;;;;;;20487;6852;283920;-77
2023/05/04 07:32:02;;;;;;;9.23;8.63;;;21.10;38.10;;;;;;20487;6853;278069;-76
2023/05/04 07:34:28;;;;;;;8.52;8.02;;;21.50;36.90;;;;;;20465;6853;337348;-76
2023/05/04 07:36:54;;;;;;;7.70;7.03;;;21.90;34.70;;;;;;20481;6853;278669;-76
2023/05/04 07:39:20;;;;;;;8.60;8.00;;;22.00;35.30;;;;;;20697;6853;117855;-77
2023/05/04 07:41:45;;;;;;;8.03;7.33;;;21.90;36.10;;;;;;20696;6853;117358;-77
2023/05/04 07:44:11;;;;;;;8.50;8.00;;;21.60;36.50;;;;;;20482;6853;293922;-74
2023/05/04 07:46:37;;;;;;;8.10;7.70;;;21.70;35.70;;;;;;20675;6853;117728;-75
2023/05/04 07:49:03;;;;;;;8.05;7.55;;;21.80;36.50;;;;;;20471;6853;308261;-75
2023/05/04 07:51:30;;;;;;;7.47;6.87;;;22.00;35.80;;;;;;20693;6853;117880;-74
2023/05/04 07:53:55;;;;;;;7.37;6.77;;;21.90;35.80;;;;;;20485;6853;278798;-71
2023/05/04 07:56:21;;;;;;;8.52;8.02;;;22.20;35.50;;;;;;20461;6853;313540;-72
2023/05/04 07:58:46;;;;;;;7.70;7.20;;;22.50;34.30;;;;;;20690;6853;117311;-74
2023/05/04 08:01:13;;;;;;;7.47;7.07;;;22.60;33.00;;;;;;20479;6853;279563;-73
2023/05/04 08:03:39;;;;;;;7.83;7.33;;;22.60;33.00;;;;;;20472;6853;309101;-73
2023/05/04 08:06:04;;;;;;;6.77;6.37;;;22.80;33.00;;;;;;20666;6853;117161;-74
2023/05/04 08:08:29;;;;;;;7.50;7.00;;;22.80;33.90;;;;;;20463;6853;282499;-73
2023/05/04 08:10:55;;;;;;;6.57;6.10;;;22.90;34.10;;;;;;20694;6853;125231;-73
2023/05/04 08:13:21;;;;;;;7.10;6.60;;;23.00;34.50;;;;;;20696;6853;117550;-74
2023/05/04 08:15:46;;;;;;;8.43;7.93;;;22.90;34.80;;;;;;20478;6853;284760;-74
2023/05/04 08:18:12;;;;;;;6.67;6.30;;;23.10;33.80;;;;;;20693;6853;117655;-73
2023/05/04 08:20:37;;;;;;;7.05;6.65;;;23.10;34.60;;;;;;20458;6853;316556;-75
2023/05/04 08:23:03;;;;;;;7.97;7.20;;;23.30;32.80;;;;;;20700;6853;119354;-73
2023/05/04 08:25:28;;;;;;;9.20;7.10;;;23.40;34.00;;;;;;20699;6853;117623;-72
2023/05/04 08:27:55;;;;;;;7.97;7.27;;;23.30;34.70;;;;;;20696;6853;118132;-74
2023/05/04 08:30:20;;;;;;;7.20;6.80;;;23.20;35.10;;;;;;20672;6853;117673;-76
2023/05/04 08:32:47;;;;;;;7.57;7.10;;;23.10;35.50;;;;;;20689;6853;121496;-76
2023/05/04 08:35:11;;;;;;;7.90;7.40;;;23.10;35.60;;;;;;20477;6853;293685;-77
2023/05/04 08:37:38;;;;;;;13.23;8.77;;;23.30;33.40;;;;;;20474;6853;307341;-78
2023/05/04 08:40:05;;;;;;;8.70;8.05;;;23.90;32.90;;;;;;20467;6851;278403;-76
2023/05/04 08:42:31;;;;;;;8.10;7.50;;;23.90;32.50;;;;;;20658;6853;122995;-76
2023/05/04 08:44:57;;;;;;;9.10;8.40;;;23.80;33.10;;;;;;20458;6853;312357;-76
2023/05/04 08:47:27;;;;;;;7.73;7.23;;;23.90;34.10;;;;;;20689;6853;117322;-75
2023/05/04 08:49:52;;;;;;;7.40;7.00;;;23.80;34.20;;;;;;20683;6853;117776;-75
2023/05/04 08:52:18;;;;;;;8.47;7.97;;;23.60;34.70;;;;;;20467;6853;293040;-78
2023/05/04 08:54:43;;;;;;;12.70;8.73;;;23.80;33.80;;;;;;20298;6851;312270;-76
2023/05/04 08:57:09;;;;;;;7.57;6.97;;;24.20;34.30;;;;;;20703;6851;117267;-77
2023/05/04 08:59:35;;;;;;;7.90;7.10;;;24.30;34.70;;;;;;20705;6851;117604;-76
2023/05/04 09:02:00;;;;;;;8.50;7.90;;;24.20;34.60;;;;;;20490;6851;307194;-77
2023/05/04 09:04:25;;;;;;;7.90;7.30;;;24.30;33.40;;;;;;20464;6851;308263;-77
2023/05/04 09:06:52;;;;;;;7.70;7.20;;;24.70;32.50;;;;;;20470;6851;313385;-77
2023/05/04 09:09:18;;;;;;;7.47;6.93;;;24.90;32.50;;;;;;20467;6851;278077;-76
2023/05/04 09:11:44;;;;;;;7.40;6.83;;;25.20;33.20;;;;;;20670;6851;117461;-75
2023/05/04 09:14:10;;;;;;;6.80;6.20;;;25.10;33.10;;;;;;20635;6868;117753;-75
2023/05/04 09:16:37;;;;;;;6.60;6.10;;;24.90;33.50;;;;;;20627;6868;117353;-77
2023/05/04 09:19:03;;;;;;;6.70;6.17;;;24.70;33.60;;;;;;20691;6853;120512;-77
2023/05/04 09:21:29;;;;;;;6.70;6.20;;;24.70;32.20;;;;;;20474;6853;315356;-75
2023/05/04 09:23:55;;;;;;;6.90;6.60;;;24.70;32.60;;;;;;20480;6853;307855;-76
2023/05/04 09:26:30;;;;;;;5.27;5.03;;;25.10;30.90;;;;;;20678;6853;118098;-76
2023/05/04 09:28:56;;;;;;;6.40;6.00;;;25.10;31.90;;;;;;20454;6853;310460;-74
2023/05/04 09:31:25;;;;;;;5.67;5.27;;;25.30;31.10;;;;;;20671;6853;119935;-76
2023/05/04 09:33:48;;;;;;;5.85;5.53;;;25.30;32.80;;;;;;20654;6853;117109;-73
2023/05/04 09:36:14;;;;;;;9.88;9.18;;;25.30;32.80;;;;;;20445;6853;278660;-74
2023/05/04 09:38:39;;;;;;;6.70;6.20;;;25.50;30.50;;;;;;20439;6853;294854;-73
2023/05/04 09:41:05;;;;;;;5.80;5.30;;;25.80;30.00;;;;;;20502;6853;308290;-74
2023/05/04 09:43:40;;;;;;;6.27;4.80;;;26.20;29.40;;;;;;20478;6853;311001;-74
2023/05/04 09:46:07;;;;;;;4.73;4.50;;;26.40;29.40;;;;;;20684;6853;117234;-74
2023/05/04 09:48:32;;;;;;;4.43;4.13;;;26.40;29.40;;;;;;20427;6853;282641;-74
2023/05/04 09:50:58;;;;;;;4.40;3.83;;;26.40;28.50;;;;;;20697;6853;117335;-73
2023/05/04 09:53:26;;;;;;;3.70;3.50;;;26.40;29.20;;;;;;20469;6851;308212;-74
2023/05/04 09:55:52;;;;;;;3.10;2.90;;;26.60;27.20;;;;;;20675;6853;117352;-74
2023/05/04 09:58:17;;;;;;;3.40;3.10;;;26.60;28.00;;;;;;20047;6853;310429;-77
2023/05/04 10:00:44;;;;;;;3.20;3.10;;;26.90;26.10;;;;;;20466;6853;287227;-76
2023/05/04 10:03:09;;;;;;;3.40;3.10;;;26.90;26.10;;;;;;20470;6853;278997;-74
2023/05/04 10:05:35;;;;;;;3.40;3.30;;;27.20;25.50;;;;;;20680;6853;117083;-73
2023/05/04 10:08:00;;;;;;;3.17;3.08;;;27.20;26.50;;;;;;20680;6853;123473;-76
2023/05/04 10:10:26;;;;;;;2.90;2.70;;;27.10;26.90;;;;;;20667;6853;119695;-76
2023/05/04 10:12:53;;;;;;;3.00;2.80;;;26.90;27.20;;;;;;20691;6853;117335;-76
2023/05/04 10:15:19;;;;;;;2.87;2.67;;;26.60;27.40;;;;;;20692;6853;117026;-76
2023/05/04 10:18:05;;;;;;;2.93;2.83;;;26.60;27.40;;;;;;20693;6853;120316;-75
2023/05/04 10:20:53;;;;;;;2.93;2.67;;;26.50;27.40;;;;;;20672;6853;117260;-72
2023/05/04 10:24:00;;;;;;;3.90;3.33;;;26.50;26.50;;;;;;20486;6853;277868;-73
2023/05/04 10:26:46;;;;;;;3.50;3.05;;;26.50;26.30;;;;;;20463;6853;336726;-75
2023/05/04 10:29:17;;;;;;;2.90;2.80;;;26.90;27.70;;;;;;20681;6853;117337;-75
2023/05/04 10:31:43;;;;;;;2.80;2.70;;;26.90;27.70;;;;;;20675;6853;66959;-76
2023/05/04 10:34:08;;;;;;;2.70;2.60;;;26.80;28.00;;;;;;20447;6853;312855;-76
2023/05/04 10:36:37;;;;;;;2.90;2.70;;;26.90;26.10;;;;;;20672;6853;117528;-75
2023/05/04 10:39:03;;;;;;;3.13;2.93;;;27.00;26.30;;;;;;20685;6853;119991;-77
2023/05/04 10:41:29;;;;;;;3.37;3.17;;;26.90;24.90;;;;;;20478;6853;281368;-75
2023/05/04 10:44:01;;;;;;;2.73;2.63;;;26.90;24.90;;;;;;20471;6853;308045;-76
2023/05/04 10:46:28;;;;;;;2.87;2.77;;;27.50;24.60;;;;;;20459;6853;311435;-74
2023/05/04 10:48:54;;;;;;;2.73;2.50;;;27.40;24.50;;;;;;20691;6853;119860;-77
2023/05/04 10:51:20;;;;;;;2.80;2.60;;;27.40;25.50;;;;;;20481;6853;311885;-75
2023/05/04 10:53:46;;;;;;;2.93;2.83;;;27.40;25.60;;;;;;20458;6853;307839;-75
2023/05/04 10:56:21;;;;;;;2.60;2.50;;;27.60;25.00;;;;;;20489;6853;282947;-73
2023/05/04 10:58:47;;;;;;;2.30;2.20;;;27.70;25.40;;;;;;20673;6853;117818;-76
2023/05/04 11:01:12;;;;;;;3.20;2.50;;;27.80;25.80;;;;;;20488;6853;278012;-76
2023/05/04 11:03:39;;;;;;;2.30;2.20;;;27.80;25.50;;;;;;20493;6852;319573;-75
2023/05/04 11:06:18;;;;;;;2.30;2.20;;;28.00;26.30;;;;;;20694;6853;117036;-73
2023/05/04 11:08:44;;;;;;;2.60;2.50;;;27.90;26.50;;;;;;20685;6853;117827;-73
2023/05/04 11:11:09;;;;;;;2.50;2.40;;;27.80;26.40;;;;;;20474;6853;307764;-73
2023/05/04 11:13:35;;;;;;;2.50;2.30;;;27.90;24.90;;;;;;20483;6853;309106;-72
2023/05/04 11:16:00;;;;;;;2.73;2.63;;;28.20;24.20;;;;;;20675;6853;117640;-72
2023/05/04 11:18:30;;;;;;;3.07;2.87;;;28.20;25.10;;;;;;20675;6853;117276;-74
2023/05/04 11:20:55;;;;;;;2.70;2.50;;;28.00;25.20;;;;;;20453;6853;297887;-75
2023/05/04 11:23:21;;;;;;;2.70;2.60;;;27.90;24.10;;;;;;20688;6853;117138;-76
2023/05/04 11:25:46;;;;;;;2.53;2.43;;;27.90;25.20;;;;;;20698;6853;117692;-76
2023/05/04 11:28:12;;;;;;;2.70;2.60;;;27.80;26.00;;;;;;20486;6853;337383;-75
2023/05/04 11:30:39;;;;;;;2.47;2.37;;;27.90;25.60;;;;;;20674;6853;118102;-76
2023/05/04 11:33:04;;;;;;;2.40;2.30;;;27.90;25.50;;;;;;20476;6853;336950;-75
2023/05/04 11:35:31;;;;;;;2.30;2.20;;;28.00;25.00;;;;;;20672;6853;117107;-76
2023/05/04 11:37:56;;;;;;;3.08;2.87;;;28.00;25.30;;;;;;20683;6853;123018;-76
2023/05/04 11:40:21;;;;;;;2.70;2.60;;;27.90;25.20;;;;;;20669;6853;119498;-74
2023/05/04 11:42:50;;;;;;;2.60;2.50;;;27.60;24.60;;;;;;20473;6853;278817;-75
2023/05/04 11:45:13;;;;;;;3.30;3.10;;;27.60;24.60;;;;;;20649;6853;118051;-78
2023/05/04 11:47:38;;;;;;;2.50;2.40;;;27.60;25.50;;;;;;20460;6853;312107;-75
2023/05/04 11:50:04;;;;;;;2.77;2.57;;;27.60;25.50;;;;;;20691;6853;117177;-75
2023/05/04 11:52:32;;;;;;;2.90;2.70;;;27.70;25.70;;;;;;20455;6853;282955;-76
2023/05/04 11:54:56;;;;;;;3.17;2.90;;;27.70;24.80;;;;;;20472;6853;309667;-74
2023/05/04 11:57:21;;;;;;;2.53;2.43;;;27.90;24.50;;;;;;20699;6853;120947;-75
2023/05/04 11:59:49;;;;;;;2.90;2.60;;;27.80;25.30;;;;;;20488;6853;308293;-75
2023/05/04 12:02:15;;;;;;;2.63;2.53;;;27.80;25.30;;;;;;20486;6853;308187;-75
2023/05/04 12:04:41;;;;;;;2.50;2.40;;;28.00;25.60;;;;;;20470;6853;311048;-77
2023/05/04 12:07:09;;;;;;;3.58;3.37;;;28.10;24.70;;;;;;20480;6853;308191;-78
2023/05/04 12:09:42;;;;;;;3.50;3.30;;;28.10;24.50;;;;;;20474;6853;311667;-77
2023/05/04 12:12:07;;;;;;;2.87;2.77;;;28.20;24.50;;;;;;20479;6853;277984;-79
2023/05/04 12:14:34;;;;;;;3.20;3.00;;;28.00;26.40;;;;;;20671;6852;123303;-76
2023/05/04 12:17:02;;;;;;;3.70;3.40;;;27.90;25.90;;;;;;20477;6853;312598;-77
2023/05/04 12:19:26;;;;;;;3.57;3.37;;;27.90;25.90;;;;;;20687;6853;118441;-75
2023/05/04 12:21:56;;;;;;;3.50;3.15;;;27.40;26.40;;;;;;20690;6853;117429;-75
2023/05/04 12:24:22;;;;;;;3.13;2.93;;;27.40;26.30;;;;;;20670;6853;117234;-77